sensor_id;sensor_type;location;lat;lon;timestamp;P1;durP1;ratioP1;P2;durP2;ratioP2
21330;SDS011;10824;51.632;4.950;2024-02-14T00:01:50;2.90;;;1.80;;
21330;SDS011;10824;51.632;4.950;2024-02-14T00:04:18;2.17;;;1.92;;
21330;SDS011;10824;51.632;4.950;2024-02-14T00:06:46;2.30;;;1.67;;
21330;SDS011;10824;51.632;4.950;2024-02-14T00:09:13;2.13;;;1.52;;
21330;SDS011;10824;51.632;4.950;2024-02-14T00:11:41;2.55;;;1.30;;
21330;SDS011;10824;51.632;4.950;2024-02-14T00:14:09;1.77;;;1.40;;
21330;SDS011;10824;51.632;4.950;2024-02-14T00:16:36;1.63;;;1.52;;
21330;SDS011;10824;51.632;4.950;2024-02-14T00:19:05;2.72;;;1.23;;
21330;SDS011;10824;51.632;4.950;2024-02-14T00:21:33;2.17;;;1.50;;
21330;SDS011;10824;51.632;4.950;2024-02-14T00:24:03;1.02;;;0.98;;
21330;SDS011;10824;51.632;4.950;2024-02-14T00:26:31;2.08;;;1.30;;
21330;SDS011;10824;51.632;4.950;2024-02-14T00:28:59;6.32;;;2.17;;
21330;SDS011;10824;51.632;4.950;2024-02-14T00:31:27;2.83;;;1.70;;
21330;SDS011;10824;51.632;4.950;2024-02-14T00:33:56;3.30;;;2.28;;
21330;SDS011;10824;51.632;4.950;2024-02-14T00:36:26;6.60;;;2.03;;
21330;SDS011;10824;51.632;4.950;2024-02-14T00:38:56;3.92;;;2.22;;
21330;SDS011;10824;51.632;4.950;2024-02-14T00:41:27;5.38;;;1.95;;
21330;SDS011;10824;51.632;4.950;2024-02-14T00:43:56;2.28;;;1.70;;
21330;SDS011;10824;51.632;4.950;2024-02-14T00:46:24;3.15;;;1.50;;
21330;SDS011;10824;51.632;4.950;2024-02-14T00:48:51;1.63;;;1.50;;
21330;SDS011;10824;51.632;4.950;2024-02-14T00:51:21;4.72;;;1.70;;
21330;SDS011;10824;51.632;4.950;2024-02-14T00:53:49;4.18;;;1.73;;
21330;SDS011;10824;51.632;4.950;2024-02-14T00:56:16;3.28;;;1.83;;
21330;SDS011;10824;51.632;4.950;2024-02-14T00:58:44;2.72;;;2.30;;
21330;SDS011;10824;51.632;4.950;2024-02-14T01:01:12;3.10;;;1.88;;
21330;SDS011;10824;51.632;4.950;2024-02-14T01:03:40;2.47;;;1.52;;
21330;SDS011;10824;51.632;4.950;2024-02-14T01:06:08;1.70;;;1.17;;
21330;SDS011;10824;51.632;4.950;2024-02-14T01:08:37;2.60;;;1.63;;
21330;SDS011;10824;51.632;4.950;2024-02-14T01:11:05;2.75;;;1.58;;
21330;SDS011;10824;51.632;4.950;2024-02-14T01:13:33;2.33;;;1.48;;
21330;SDS011;10824;51.632;4.950;2024-02-14T01:16:02;2.30;;;2.08;;
21330;SDS011;10824;51.632;4.950;2024-02-14T01:18:31;2.95;;;1.83;;
21330;SDS011;10824;51.632;4.950;2024-02-14T01:20:59;3.05;;;1.52;;
21330;SDS011;10824;51.632;4.950;2024-02-14T01:23:27;3.20;;;1.42;;
21330;SDS011;10824;51.632;4.950;2024-02-14T01:25:58;3.05;;;1.85;;
21330;SDS011;10824;51.632;4.950;2024-02-14T01:28:25;3.72;;;1.88;;
21330;SDS011;10824;51.632;4.950;2024-02-14T01:30:53;3.53;;;1.67;;
21330;SDS011;10824;51.632;4.950;2024-02-14T01:33:21;5.70;;;2.15;;
21330;SDS011;10824;51.632;4.950;2024-02-14T01:35:48;5.00;;;2.97;;
21330;SDS011;10824;51.632;4.950;2024-02-14T01:38:19;5.88;;;1.77;;
21330;SDS011;10824;51.632;4.950;2024-02-14T01:40:47;2.00;;;1.63;;
21330;SDS011;10824;51.632;4.950;2024-02-14T01:43:19;2.85;;;2.30;;
21330;SDS011;10824;51.632;4.950;2024-02-14T01:45:47;1.48;;;1.23;;
21330;SDS011;10824;51.632;4.950;2024-02-14T01:48:15;2.22;;;1.75;;
21330;SDS011;10824;51.632;4.950;2024-02-14T01:50:47;7.55;;;3.00;;
21330;SDS011;10824;51.632;4.950;2024-02-14T01:53:14;3.13;;;2.45;;
21330;SDS011;10824;51.632;4.950;2024-02-14T01:55:42;2.80;;;1.70;;
21330;SDS011;10824;51.632;4.950;2024-02-14T01:58:12;2.53;;;1.65;;
21330;SDS011;10824;51.632;4.950;2024-02-14T02:00:40;2.95;;;1.60;;
21330;SDS011;10824;51.632;4.950;2024-02-14T02:03:12;4.00;;;2.25;;
21330;SDS011;10824;51.632;4.950;2024-02-14T02:05:41;2.25;;;1.75;;
21330;SDS011;10824;51.632;4.950;2024-02-14T02:08:09;2.47;;;1.30;;
21330;SDS011;10824;51.632;4.950;2024-02-14T02:10:37;3.75;;;1.50;;
21330;SDS011;10824;51.632;4.950;2024-02-14T02:13:05;1.95;;;1.40;;
21330;SDS011;10824;51.632;4.950;2024-02-14T02:15:33;5.25;;;1.92;;
21330;SDS011;10824;51.632;4.950;2024-02-14T02:18:01;1.88;;;1.67;;
21330;SDS011;10824;51.632;4.950;2024-02-14T02:20:32;3.85;;;1.30;;
21330;SDS011;10824;51.632;4.950;2024-02-14T02:22:59;1.50;;;1.40;;
21330;SDS011;10824;51.632;4.950;2024-02-14T02:25:27;4.28;;;2.25;;
21330;SDS011;10824;51.632;4.950;2024-02-14T02:27:54;3.15;;;2.15;;
21330;SDS011;10824;51.632;4.950;2024-02-14T02:30:25;4.55;;;2.95;;
21330;SDS011;10824;51.632;4.950;2024-02-14T02:32:53;2.95;;;1.73;;
21330;SDS011;10824;51.632;4.950;2024-02-14T02:35:20;2.47;;;1.75;;
21330;SDS011;10824;51.632;4.950;2024-02-14T02:37:48;3.20;;;1.50;;
21330;SDS011;10824;51.632;4.950;2024-02-14T02:40:17;5.25;;;2.63;;
21330;SDS011;10824;51.632;4.950;2024-02-14T02:42:48;3.72;;;2.20;;
21330;SDS011;10824;51.632;4.950;2024-02-14T02:45:17;5.57;;;2.10;;
21330;SDS011;10824;51.632;4.950;2024-02-14T02:47:44;6.32;;;2.83;;
21330;SDS011;10824;51.632;4.950;2024-02-14T02:50:15;4.38;;;2.40;;
21330;SDS011;10824;51.632;4.950;2024-02-14T02:52:45;3.22;;;2.22;;
21330;SDS011;10824;51.632;4.950;2024-02-14T02:55:16;4.97;;;2.08;;
21330;SDS011;10824;51.632;4.950;2024-02-14T02:57:46;4.80;;;2.33;;
21330;SDS011;10824;51.632;4.950;2024-02-14T03:00:14;4.05;;;2.38;;
21330;SDS011;10824;51.632;4.950;2024-02-14T03:02:43;4.22;;;2.75;;
21330;SDS011;10824;51.632;4.950;2024-02-14T03:05:13;4.72;;;2.25;;
21330;SDS011;10824;51.632;4.950;2024-02-14T03:07:50;4.07;;;2.15;;
21330;SDS011;10824;51.632;4.950;2024-02-14T03:10:19;5.75;;;3.03;;
21330;SDS011;10824;51.632;4.950;2024-02-14T03:12:48;3.30;;;2.63;;
21330;SDS011;10824;51.632;4.950;2024-02-14T03:15:16;3.10;;;2.17;;
21330;SDS011;10824;51.632;4.950;2024-02-14T03:17:45;2.78;;;2.05;;
21330;SDS011;10824;51.632;4.950;2024-02-14T03:20:13;5.38;;;2.28;;
21330;SDS011;10824;51.632;4.950;2024-02-14T03:22:43;4.93;;;2.65;;
21330;SDS011;10824;51.632;4.950;2024-02-14T03:25:18;3.50;;;2.70;;
21330;SDS011;10824;51.632;4.950;2024-02-14T03:27:47;4.90;;;2.70;;
21330;SDS011;10824;51.632;4.950;2024-02-14T03:30:20;6.38;;;3.45;;
21330;SDS011;10824;51.632;4.950;2024-02-14T03:32:49;3.75;;;2.08;;
21330;SDS011;10824;51.632;4.950;2024-02-14T03:35:17;4.65;;;3.15;;
21330;SDS011;10824;51.632;4.950;2024-02-14T03:37:47;3.83;;;2.30;;
21330;SDS011;10824;51.632;4.950;2024-02-14T03:40:17;3.97;;;2.63;;
21330;SDS011;10824;51.632;4.950;2024-02-14T03:42:48;4.63;;;2.60;;
21330;SDS011;10824;51.632;4.950;2024-02-14T04:07:22;3.45;;;2.40;;
21330;SDS011;10824;51.632;4.950;2024-02-14T04:09:49;5.13;;;3.55;;
21330;SDS011;10824;51.632;4.950;2024-02-14T04:12:17;3.83;;;2.55;;
21330;SDS011;10824;51.632;4.950;2024-02-14T04:14:45;8.60;;;3.05;;
21330;SDS011;10824;51.632;4.950;2024-02-14T04:17:13;5.75;;;2.72;;
21330;SDS011;10824;51.632;4.950;2024-02-14T04:20:03;4.43;;;2.70;;
21330;SDS011;10824;51.632;4.950;2024-02-14T04:22:32;5.82;;;3.20;;
21330;SDS011;10824;51.632;4.950;2024-02-14T04:28:24;6.50;;;2.38;;
21330;SDS011;10824;51.632;4.950;2024-02-14T04:30:51;5.18;;;3.42;;
21330;SDS011;10824;51.632;4.950;2024-02-14T04:33:20;7.10;;;4.75;;
21330;SDS011;10824;51.632;4.950;2024-02-14T04:35:48;3.97;;;2.28;;
21330;SDS011;10824;51.632;4.950;2024-02-14T04:38:19;4.20;;;3.05;;
21330;SDS011;10824;51.632;4.950;2024-02-14T04:40:50;4.35;;;3.05;;
21330;SDS011;10824;51.632;4.950;2024-02-14T04:43:20;4.95;;;2.60;;
21330;SDS011;10824;51.632;4.950;2024-02-14T04:45:54;8.48;;;3.00;;
21330;SDS011;10824;51.632;4.950;2024-02-14T05:00:37;5.30;;;3.40;;
21330;SDS011;10824;51.632;4.950;2024-02-14T05:03:08;3.78;;;3.10;;
21330;SDS011;10824;51.632;4.950;2024-02-14T05:05:43;4.80;;;3.53;;
21330;SDS011;10824;51.632;4.950;2024-02-14T05:08:11;6.68;;;3.58;;
21330;SDS011;10824;51.632;4.950;2024-02-14T05:10:39;5.35;;;4.45;;
21330;SDS011;10824;51.632;4.950;2024-02-14T05:13:29;3.72;;;2.97;;
21330;SDS011;10824;51.632;4.950;2024-02-14T05:15:57;5.63;;;2.92;;
21330;SDS011;10824;51.632;4.950;2024-02-14T06:26:31;5.40;;;3.35;;
21330;SDS011;10824;51.632;4.950;2024-02-14T06:29:00;7.93;;;3.83;;
21330;SDS011;10824;51.632;4.950;2024-02-14T06:31:33;6.53;;;3.42;;
21330;SDS011;10824;51.632;4.950;2024-02-14T06:34:00;7.90;;;3.67;;
21330;SDS011;10824;51.632;4.950;2024-02-14T06:36:28;5.78;;;3.83;;
21330;SDS011;10824;51.632;4.950;2024-02-14T06:38:55;11.40;;;4.10;;
21330;SDS011;10824;51.632;4.950;2024-02-14T06:41:23;7.22;;;4.65;;
21330;SDS011;10824;51.632;4.950;2024-02-14T06:43:50;7.13;;;3.58;;
21330;SDS011;10824;51.632;4.950;2024-02-14T06:46:18;5.40;;;3.60;;
21330;SDS011;10824;51.632;4.950;2024-02-14T06:48:45;7.20;;;4.57;;
21330;SDS011;10824;51.632;4.950;2024-02-14T06:51:13;11.48;;;4.78;;
21330;SDS011;10824;51.632;4.950;2024-02-14T06:53:41;6.72;;;3.60;;
21330;SDS011;10824;51.632;4.950;2024-02-14T06:56:08;10.00;;;3.33;;
21330;SDS011;10824;51.632;4.950;2024-02-14T07:50:15;8.88;;;4.43;;
21330;SDS011;10824;51.632;4.950;2024-02-14T07:52:46;6.72;;;3.17;;
21330;SDS011;10824;51.632;4.950;2024-02-14T07:55:17;5.97;;;2.65;;
21330;SDS011;10824;51.632;4.950;2024-02-14T07:57:48;32.28;;;6.00;;
21330;SDS011;10824;51.632;4.950;2024-02-14T08:00:15;5.07;;;3.10;;
21330;SDS011;10824;51.632;4.950;2024-02-14T08:02:49;9.20;;;2.97;;
21330;SDS011;10824;51.632;4.950;2024-02-14T08:05:20;8.00;;;4.18;;
21330;SDS011;10824;51.632;4.950;2024-02-14T08:07:50;6.10;;;3.35;;
21330;SDS011;10824;51.632;4.950;2024-02-14T08:10:18;8.85;;;3.65;;
21330;SDS011;10824;51.632;4.950;2024-02-14T08:12:49;7.77;;;3.40;;
21330;SDS011;10824;51.632;4.950;2024-02-14T08:30:53;4.43;;;2.85;;
21330;SDS011;10824;51.632;4.950;2024-02-14T08:33:21;6.53;;;3.20;;
21330;SDS011;10824;51.632;4.950;2024-02-14T08:54:36;5.55;;;2.53;;
21330;SDS011;10824;51.632;4.950;2024-02-14T08:57:08;5.70;;;2.47;;
21330;SDS011;10824;51.632;4.950;2024-02-14T08:59:35;3.40;;;2.20;;
21330;SDS011;10824;51.632;4.950;2024-02-14T09:02:03;8.32;;;3.05;;
21330;SDS011;10824;51.632;4.950;2024-02-14T09:04:34;6.00;;;3.03;;
21330;SDS011;10824;51.632;4.950;2024-02-14T09:07:08;6.18;;;2.90;;
21330;SDS011;10824;51.632;4.950;2024-02-14T09:38:12;5.18;;;2.78;;
21330;SDS011;10824;51.632;4.950;2024-02-14T09:40:44;5.05;;;3.00;;
21330;SDS011;10824;51.632;4.950;2024-02-14T09:43:18;4.65;;;2.53;;
21330;SDS011;10824;51.632;4.950;2024-02-14T09:46:04;5.95;;;2.63;;
21330;SDS011;10824;51.632;4.950;2024-02-14T09:48:34;9.15;;;3.75;;
21330;SDS011;10824;51.632;4.950;2024-02-14T09:51:05;5.82;;;2.72;;
21330;SDS011;10824;51.632;4.950;2024-02-14T09:53:38;4.15;;;2.25;;
21330;SDS011;10824;51.632;4.950;2024-02-14T09:56:10;5.60;;;2.20;;
21330;SDS011;10824;51.632;4.950;2024-02-14T09:58:40;4.63;;;2.70;;
21330;SDS011;10824;51.632;4.950;2024-02-14T10:01:08;4.90;;;3.53;;
21330;SDS011;10824;51.632;4.950;2024-02-14T10:03:36;3.67;;;2.40;;
21330;SDS011;10824;51.632;4.950;2024-02-14T10:06:05;4.45;;;2.75;;
21330;SDS011;10824;51.632;4.950;2024-02-14T10:08:33;5.45;;;2.85;;
21330;SDS011;10824;51.632;4.950;2024-02-14T10:11:07;7.72;;;2.95;;
21330;SDS011;10824;51.632;4.950;2024-02-14T10:13:35;3.95;;;2.35;;
21330;SDS011;10824;51.632;4.950;2024-02-14T10:16:02;4.75;;;2.72;;
21330;SDS011;10824;51.632;4.950;2024-02-14T10:18:31;5.00;;;2.17;;
21330;SDS011;10824;51.632;4.950;2024-02-14T10:20:58;6.07;;;2.10;;
21330;SDS011;10824;51.632;4.950;2024-02-14T10:23:29;4.32;;;2.42;;
21330;SDS011;10824;51.632;4.950;2024-02-14T10:25:56;6.78;;;3.15;;
21330;SDS011;10824;51.632;4.950;2024-02-14T10:28:23;3.58;;;2.25;;
21330;SDS011;10824;51.632;4.950;2024-02-14T10:31:02;2.92;;;2.22;;
21330;SDS011;10824;51.632;4.950;2024-02-14T10:33:31;4.07;;;2.10;;
21330;SDS011;10824;51.632;4.950;2024-02-14T10:35:59;6.18;;;2.63;;
21330;SDS011;10824;51.632;4.950;2024-02-14T10:38:32;7.75;;;3.58;;
21330;SDS011;10824;51.632;4.950;2024-02-14T10:41:00;8.85;;;3.00;;
21330;SDS011;10824;51.632;4.950;2024-02-14T10:43:28;4.38;;;2.10;;
21330;SDS011;10824;51.632;4.950;2024-02-14T10:45:55;6.32;;;2.17;;
21330;SDS011;10824;51.632;4.950;2024-02-14T10:48:25;3.58;;;1.88;;
21330;SDS011;10824;51.632;4.950;2024-02-14T10:50:56;2.28;;;1.42;;
21330;SDS011;10824;51.632;4.950;2024-02-14T10:53:26;6.43;;;2.03;;
21330;SDS011;10824;51.632;4.950;2024-02-14T10:55:59;6.25;;;1.95;;
21330;SDS011;10824;51.632;4.950;2024-02-14T10:58:28;2.15;;;1.60;;
21330;SDS011;10824;51.632;4.950;2024-02-14T11:00:57;5.72;;;2.95;;
21330;SDS011;10824;51.632;4.950;2024-02-14T11:03:24;3.10;;;2.20;;
21330;SDS011;10824;51.632;4.950;2024-02-14T11:05:53;5.72;;;1.73;;
21330;SDS011;10824;51.632;4.950;2024-02-14T11:08:28;4.55;;;1.60;;
21330;SDS011;10824;51.632;4.950;2024-02-14T11:10:58;3.80;;;1.50;;
21330;SDS011;10824;51.632;4.950;2024-02-14T11:13:26;3.50;;;1.90;;
21330;SDS011;10824;51.632;4.950;2024-02-14T11:15:56;2.63;;;2.25;;
21330;SDS011;10824;51.632;4.950;2024-02-14T11:18:31;2.60;;;1.83;;
21330;SDS011;10824;51.632;4.950;2024-02-14T11:21:04;7.40;;;2.50;;
21330;SDS011;10824;51.632;4.950;2024-02-14T11:23:52;3.15;;;1.63;;
21330;SDS011;10824;51.632;4.950;2024-02-14T11:26:20;3.33;;;2.08;;
21330;SDS011;10824;51.632;4.950;2024-02-14T11:28:49;4.22;;;1.92;;
21330;SDS011;10824;51.632;4.950;2024-02-14T11:31:32;4.47;;;2.53;;
21330;SDS011;10824;51.632;4.950;2024-02-14T11:34:05;8.05;;;2.67;;
21330;SDS011;10824;51.632;4.950;2024-02-14T11:36:32;7.40;;;3.28;;
21330;SDS011;10824;51.632;4.950;2024-02-14T11:39:02;7.68;;;1.73;;
21330;SDS011;10824;51.632;4.950;2024-02-14T11:41:34;2.80;;;1.97;;
21330;SDS011;10824;51.632;4.950;2024-02-14T11:44:02;4.07;;;1.67;;
21330;SDS011;10824;51.632;4.950;2024-02-14T11:46:33;3.60;;;1.98;;
21330;SDS011;10824;51.632;4.950;2024-02-14T11:49:02;3.88;;;2.10;;
21330;SDS011;10824;51.632;4.950;2024-02-14T11:51:32;8.50;;;3.67;;
21330;SDS011;10824;51.632;4.950;2024-02-14T11:54:02;3.23;;;1.90;;
21330;SDS011;10824;51.632;4.950;2024-02-14T11:56:35;12.65;;;2.80;;
21330;SDS011;10824;51.632;4.950;2024-02-14T11:59:04;2.20;;;1.40;;
21330;SDS011;10824;51.632;4.950;2024-02-14T12:01:36;4.57;;;1.90;;
21330;SDS011;10824;51.632;4.950;2024-02-14T12:04:05;3.33;;;1.85;;
21330;SDS011;10824;51.632;4.950;2024-02-14T12:06:36;2.75;;;1.85;;
21330;SDS011;10824;51.632;4.950;2024-02-14T12:09:04;2.90;;;1.92;;
21330;SDS011;10824;51.632;4.950;2024-02-14T12:11:32;2.75;;;1.35;;
21330;SDS011;10824;51.632;4.950;2024-02-14T12:14:01;2.55;;;1.20;;
21330;SDS011;10824;51.632;4.950;2024-02-14T12:16:29;2.10;;;1.40;;
21330;SDS011;10824;51.632;4.950;2024-02-14T12:21:43;1.63;;;1.25;;
21330;SDS011;10824;51.632;4.950;2024-02-14T12:24:11;1.58;;;1.27;;
21330;SDS011;10824;51.632;4.950;2024-02-14T12:26:42;2.30;;;1.13;;
21330;SDS011;10824;51.632;4.950;2024-02-14T12:29:11;1.35;;;1.25;;
21330;SDS011;10824;51.632;4.950;2024-02-14T12:31:40;3.97;;;1.30;;
21330;SDS011;10824;51.632;4.950;2024-02-14T12:34:10;3.28;;;1.67;;
21330;SDS011;10824;51.632;4.950;2024-02-14T12:36:38;1.80;;;1.20;;
21330;SDS011;10824;51.632;4.950;2024-02-14T12:39:05;1.98;;;1.30;;
21330;SDS011;10824;51.632;4.950;2024-02-14T12:41:36;2.55;;;1.23;;
21330;SDS011;10824;51.632;4.950;2024-02-14T12:44:06;2.40;;;1.30;;
21330;SDS011;10824;51.632;4.950;2024-02-14T12:46:33;2.45;;;1.80;;
21330;SDS011;10824;51.632;4.950;2024-02-14T12:49:00;2.47;;;1.30;;
21330;SDS011;10824;51.632;4.950;2024-02-14T12:51:28;3.45;;;1.92;;
21330;SDS011;10824;51.632;4.950;2024-02-14T12:53:56;2.63;;;1.95;;
21330;SDS011;10824;51.632;4.950;2024-02-14T12:56:23;5.75;;;3.15;;
21330;SDS011;10824;51.632;4.950;2024-02-14T12:58:51;2.22;;;1.67;;
21330;SDS011;10824;51.632;4.950;2024-02-14T13:01:18;2.97;;;1.75;;
21330;SDS011;10824;51.632;4.950;2024-02-14T13:03:45;3.50;;;2.50;;
21330;SDS011;10824;51.632;4.950;2024-02-14T13:06:13;5.82;;;2.53;;
21330;SDS011;10824;51.632;4.950;2024-02-14T13:08:43;4.53;;;2.70;;
21330;SDS011;10824;51.632;4.950;2024-02-14T13:11:10;3.30;;;2.65;;
21330;SDS011;10824;51.632;4.950;2024-02-14T13:13:37;3.65;;;1.98;;
21330;SDS011;10824;51.632;4.950;2024-02-14T13:16:04;3.55;;;1.88;;
21330;SDS011;10824;51.632;4.950;2024-02-14T13:18:33;2.72;;;2.13;;
21330;SDS011;10824;51.632;4.950;2024-02-14T13:21:02;3.17;;;2.55;;
21330;SDS011;10824;51.632;4.950;2024-02-14T13:23:29;5.82;;;2.08;;
21330;SDS011;10824;51.632;4.950;2024-02-14T13:25:57;4.05;;;2.53;;
21330;SDS011;10824;51.632;4.950;2024-02-14T13:28:25;2.25;;;1.95;;
21330;SDS011;10824;51.632;4.950;2024-02-14T13:30:52;5.57;;;2.40;;
21330;SDS011;10824;51.632;4.950;2024-02-14T13:33:22;3.22;;;2.53;;
21330;SDS011;10824;51.632;4.950;2024-02-14T13:35:50;3.78;;;2.25;;
21330;SDS011;10824;51.632;4.950;2024-02-14T13:38:17;3.10;;;2.22;;
21330;SDS011;10824;51.632;4.950;2024-02-14T13:40:44;4.13;;;2.78;;
21330;SDS011;10824;51.632;4.950;2024-02-14T13:43:11;5.25;;;2.50;;
21330;SDS011;10824;51.632;4.950;2024-02-14T13:48:11;3.97;;;2.47;;
21330;SDS011;10824;51.632;4.950;2024-02-14T13:50:39;4.32;;;2.60;;
21330;SDS011;10824;51.632;4.950;2024-02-14T13:53:06;4.00;;;2.88;;
21330;SDS011;10824;51.632;4.950;2024-02-14T13:55:34;3.28;;;2.22;;
21330;SDS011;10824;51.632;4.950;2024-02-14T13:58:01;4.45;;;2.85;;
21330;SDS011;10824;51.632;4.950;2024-02-14T14:00:28;3.80;;;2.70;;
21330;SDS011;10824;51.632;4.950;2024-02-14T14:02:55;6.80;;;4.40;;
21330;SDS011;10824;51.632;4.950;2024-02-14T14:05:22;6.78;;;3.40;;
21330;SDS011;10824;51.632;4.950;2024-02-14T14:07:50;5.53;;;3.28;;
21330;SDS011;10824;51.632;4.950;2024-02-14T14:10:25;5.15;;;2.83;;
21330;SDS011;10824;51.632;4.950;2024-02-14T14:12:55;4.78;;;2.75;;
21330;SDS011;10824;51.632;4.950;2024-02-14T14:15:23;4.30;;;2.92;;
21330;SDS011;10824;51.632;4.950;2024-02-14T14:17:50;4.57;;;2.67;;
21330;SDS011;10824;51.632;4.950;2024-02-14T14:20:18;3.85;;;1.90;;
21330;SDS011;10824;51.632;4.950;2024-02-14T14:22:47;4.47;;;2.20;;
21330;SDS011;10824;51.632;4.950;2024-02-14T14:25:14;4.32;;;2.30;;
21330;SDS011;10824;51.632;4.950;2024-02-14T14:27:41;4.15;;;2.55;;
21330;SDS011;10824;51.632;4.950;2024-02-14T14:30:11;3.50;;;1.92;;
21330;SDS011;10824;51.632;4.950;2024-02-14T14:32:40;2.28;;;1.75;;
21330;SDS011;10824;51.632;4.950;2024-02-14T14:35:07;2.85;;;1.88;;
21330;SDS011;10824;51.632;4.950;2024-02-14T14:37:37;2.90;;;1.23;;
21330;SDS011;10824;51.632;4.950;2024-02-14T14:40:05;2.13;;;1.88;;
21330;SDS011;10824;51.632;4.950;2024-02-14T14:42:35;2.42;;;1.63;;
21330;SDS011;10824;51.632;4.950;2024-02-14T14:45:03;2.03;;;1.48;;
21330;SDS011;10824;51.632;4.950;2024-02-14T14:47:31;6.65;;;1.98;;
21330;SDS011;10824;51.632;4.950;2024-02-14T14:49:58;2.70;;;1.77;;
21330;SDS011;10824;51.632;4.950;2024-02-14T14:52:25;2.25;;;1.60;;
21330;SDS011;10824;51.632;4.950;2024-02-14T14:54:53;2.08;;;1.52;;
21330;SDS011;10824;51.632;4.950;2024-02-14T14:57:20;2.88;;;1.52;;
21330;SDS011;10824;51.632;4.950;2024-02-14T14:59:47;4.82;;;1.42;;
21330;SDS011;10824;51.632;4.950;2024-02-14T15:02:14;2.50;;;1.60;;
21330;SDS011;10824;51.632;4.950;2024-02-14T15:04:41;3.63;;;1.60;;
21330;SDS011;10824;51.632;4.950;2024-02-14T15:07:10;2.22;;;1.83;;
21330;SDS011;10824;51.632;4.950;2024-02-14T15:09:38;4.10;;;1.90;;
21330;SDS011;10824;51.632;4.950;2024-02-14T15:12:05;3.47;;;1.92;;
21330;SDS011;10824;51.632;4.950;2024-02-14T15:14:33;5.40;;;2.25;;
21330;SDS011;10824;51.632;4.950;2024-02-14T15:17:00;2.03;;;1.58;;
21330;SDS011;10824;51.632;4.950;2024-02-14T15:19:27;4.47;;;1.38;;
21330;SDS011;10824;51.632;4.950;2024-02-14T15:21:54;3.53;;;1.75;;
21330;SDS011;10824;51.632;4.950;2024-02-14T15:24:21;3.28;;;2.00;;
21330;SDS011;10824;51.632;4.950;2024-02-14T15:26:48;2.03;;;1.42;;
21330;SDS011;10824;51.632;4.950;2024-02-14T15:29:27;3.30;;;1.73;;
21330;SDS011;10824;51.632;4.950;2024-02-14T15:32:13;2.92;;;1.70;;
21330;SDS011;10824;51.632;4.950;2024-02-14T15:34:59;2.03;;;1.75;;
21330;SDS011;10824;51.632;4.950;2024-02-14T15:37:26;1.50;;;0.98;;
21330;SDS011;10824;51.632;4.950;2024-02-14T15:39:53;1.42;;;1.17;;
21330;SDS011;10824;51.632;4.950;2024-02-14T15:42:20;2.47;;;1.50;;
21330;SDS011;10824;51.632;4.950;2024-02-14T15:44:47;4.78;;;1.83;;
21330;SDS011;10824;51.632;4.950;2024-02-14T15:47:15;1.73;;;1.50;;
21330;SDS011;10824;51.632;4.950;2024-02-14T15:49:42;2.65;;;1.55;;
21330;SDS011;10824;51.632;4.950;2024-02-14T15:52:09;2.30;;;1.08;;
21330;SDS011;10824;51.632;4.950;2024-02-14T15:54:37;2.65;;;1.60;;
21330;SDS011;10824;51.632;4.950;2024-02-14T15:57:11;3.13;;;1.80;;
21330;SDS011;10824;51.632;4.950;2024-02-14T15:59:39;2.70;;;1.63;;
21330;SDS011;10824;51.632;4.950;2024-02-14T16:02:07;1.73;;;1.40;;
21330;SDS011;10824;51.632;4.950;2024-02-14T16:04:34;1.90;;;1.10;;
21330;SDS011;10824;51.632;4.950;2024-02-14T16:07:02;2.25;;;1.60;;
21330;SDS011;10824;51.632;4.950;2024-02-14T16:09:29;9.85;;;1.70;;
21330;SDS011;10824;51.632;4.950;2024-02-14T16:11:57;2.70;;;1.83;;
21330;SDS011;10824;51.632;4.950;2024-02-14T16:14:27;3.20;;;1.98;;
21330;SDS011;10824;51.632;4.950;2024-02-14T16:16:56;3.33;;;1.20;;
21330;SDS011;10824;51.632;4.950;2024-02-14T16:19:23;1.83;;;1.50;;
21330;SDS011;10824;51.632;4.950;2024-02-14T16:21:51;3.58;;;1.83;;
21330;SDS011;10824;51.632;4.950;2024-02-14T16:24:34;2.50;;;1.60;;
21330;SDS011;10824;51.632;4.950;2024-02-14T16:27:05;1.77;;;1.40;;
21330;SDS011;10824;51.632;4.950;2024-02-14T16:29:33;3.17;;;2.13;;
21330;SDS011;10824;51.632;4.950;2024-02-14T16:32:05;2.70;;;1.77;;
21330;SDS011;10824;51.632;4.950;2024-02-14T16:34:33;3.58;;;1.90;;
21330;SDS011;10824;51.632;4.950;2024-02-14T16:37:00;2.55;;;1.65;;
21330;SDS011;10824;51.632;4.950;2024-02-14T16:39:29;2.55;;;1.90;;
21330;SDS011;10824;51.632;4.950;2024-02-14T16:42:08;8.90;;;2.55;;
21330;SDS011;10824;51.632;4.950;2024-02-14T16:44:36;4.88;;;1.98;;
21330;SDS011;10824;51.632;4.950;2024-02-14T16:47:04;4.10;;;1.83;;
21330;SDS011;10824;51.632;4.950;2024-02-14T16:49:32;3.05;;;2.03;;
21330;SDS011;10824;51.632;4.950;2024-02-14T16:51:59;4.88;;;3.28;;
21330;SDS011;10824;51.632;4.950;2024-02-14T16:54:26;4.25;;;2.00;;
21330;SDS011;10824;51.632;4.950;2024-02-14T16:56:55;5.75;;;3.53;;
21330;SDS011;10824;51.632;4.950;2024-02-14T16:59:31;3.67;;;2.13;;
21330;SDS011;10824;51.632;4.950;2024-02-14T17:01:59;12.25;;;2.85;;
21330;SDS011;10824;51.632;4.950;2024-02-14T17:04:27;10.50;;;3.53;;
21330;SDS011;10824;51.632;4.950;2024-02-14T17:06:54;1.95;;;1.50;;
21330;SDS011;10824;51.632;4.950;2024-02-14T17:09:22;4.72;;;2.55;;
21330;SDS011;10824;51.632;4.950;2024-02-14T17:11:49;5.22;;;1.70;;
21330;SDS011;10824;51.632;4.950;2024-02-14T17:14:21;3.17;;;1.80;;
21330;SDS011;10824;51.632;4.950;2024-02-14T17:16:50;3.15;;;1.65;;
21330;SDS011;10824;51.632;4.950;2024-02-14T17:19:22;5.07;;;2.05;;
21330;SDS011;10824;51.632;4.950;2024-02-14T17:21:50;3.33;;;1.90;;
21330;SDS011;10824;51.632;4.950;2024-02-14T17:24:18;4.55;;;2.15;;
21330;SDS011;10824;51.632;4.950;2024-02-14T17:26:45;4.00;;;2.05;;
21330;SDS011;10824;51.632;4.950;2024-02-14T17:29:13;3.80;;;2.45;;
21330;SDS011;10824;51.632;4.950;2024-02-14T17:31:40;2.28;;;1.75;;
21330;SDS011;10824;51.632;4.950;2024-02-14T17:34:08;3.90;;;1.80;;
21330;SDS011;10824;51.632;4.950;2024-02-14T17:36:35;3.65;;;2.00;;
21330;SDS011;10824;51.632;4.950;2024-02-14T17:39:03;6.75;;;1.90;;
21330;SDS011;10824;51.632;4.950;2024-02-14T17:41:33;6.43;;;2.00;;
21330;SDS011;10824;51.632;4.950;2024-02-14T17:44:00;2.83;;;1.88;;
21330;SDS011;10824;51.632;4.950;2024-02-14T17:46:28;4.97;;;1.90;;
21330;SDS011;10824;51.632;4.950;2024-02-14T17:48:55;5.30;;;1.95;;
21330;SDS011;10824;51.632;4.950;2024-02-14T17:51:26;4.35;;;1.98;;
21330;SDS011;10824;51.632;4.950;2024-02-14T17:53:53;4.18;;;1.90;;
21330;SDS011;10824;51.632;4.950;2024-02-14T17:56:21;3.35;;;2.05;;
21330;SDS011;10824;51.632;4.950;2024-02-14T17:58:48;3.30;;;1.90;;
21330;SDS011;10824;51.632;4.950;2024-02-14T18:01:16;6.22;;;1.80;;
21330;SDS011;10824;51.632;4.950;2024-02-14T18:03:43;4.53;;;1.95;;
21330;SDS011;10824;51.632;4.950;2024-02-14T18:06:10;4.45;;;2.22;;
21330;SDS011;10824;51.632;4.950;2024-02-14T18:08:37;2.78;;;1.92;;
21330;SDS011;10824;51.632;4.950;2024-02-14T18:11:04;7.28;;;1.80;;
21330;SDS011;10824;51.632;4.950;2024-02-14T18:13:32;3.90;;;2.08;;
21330;SDS011;10824;51.632;4.950;2024-02-14T18:15:59;5.55;;;2.00;;
21330;SDS011;10824;51.632;4.950;2024-02-14T18:18:26;3.53;;;2.15;;
21330;SDS011;10824;51.632;4.950;2024-02-14T18:20:55;3.00;;;2.00;;
21330;SDS011;10824;51.632;4.950;2024-02-14T18:23:23;5.20;;;1.90;;
21330;SDS011;10824;51.632;4.950;2024-02-14T18:25:51;2.90;;;1.83;;
21330;SDS011;10824;51.632;4.950;2024-02-14T18:28:19;5.22;;;2.88;;
21330;SDS011;10824;51.632;4.950;2024-02-14T18:30:46;3.33;;;2.38;;
21330;SDS011;10824;51.632;4.950;2024-02-14T18:33:14;4.43;;;1.95;;
21330;SDS011;10824;51.632;4.950;2024-02-14T18:35:42;5.82;;;2.50;;
21330;SDS011;10824;51.632;4.950;2024-02-14T18:38:09;4.00;;;2.00;;
21330;SDS011;10824;51.632;4.950;2024-02-14T18:40:37;5.03;;;2.70;;
21330;SDS011;10824;51.632;4.950;2024-02-14T18:43:05;4.45;;;2.50;;
21330;SDS011;10824;51.632;4.950;2024-02-14T18:50:02;11.00;;;3.08;;